Time;durP1;ratioP1;P1;durP2;ratioP2;P2;SDS_P1;SDS_P2;PMS_P1;PMS_P2;Temp;Humidity;BMP_temperature;BMP_pressure;BME280_temperature;BME280_humidity;BME280_pressure;Samples;Min_cycle;Max_cycle;Signal;HPM_P1;HPM_P2
2022/06/01 09:37:38;;;;;;;;;;;;;;;24.81;32.58;99618.34;1087572;54;21202;-83
2022/06/01 09:38:43;;;;;;;;;;;;;;;24.86;32.15;99621.13;1089495;46;19927;-85
2022/06/01 09:39:49;;;;;;;;;;;;;;;24.14;33.51;99613.38;1092531;39;20600;-81
2022/06/01 09:41:04;;;;;;;;;;;;;;;24.35;33.56;99607.44;1088377;54;19950;-84
2022/06/01 09:42:15;;;;;;;;;;;;;;;24.56;32.98;99614.09;1088410;54;19922;-88
2022/06/01 09:43:26;;;;;;;;;;;;;;;24.60;32.80;99607.88;1088590;54;19942;-85
2022/06/01 09:44:31;;;;;;;;;;;;;;;24.57;32.88;99611.09;1088476;54;19934;-82
2022/06/01 09:45:46;;;;;;;;;;;;;;;24.24;32.96;99609.16;1088525;54;19954;-82
2022/06/01 09:46:56;;;;;;;;;;;;;;;23.66;33.18;99611.88;1088372;54;19950;-82
2022/06/01 09:48:13;;;;;;;;;;;;;;;23.88;33.38;99622.13;1088537;46;19926;-82
2022/06/01 09:49:19;;;;;;;;;;;;;;;23.61;34.18;99617.25;1088121;54;21007;-82
2022/06/01 09:50:26;;;;;;;;;;;;;;;23.45;34.31;99619.63;1088017;54;19957;-82
2022/06/01 09:51:30;;;;;;;;;;;;;;;23.87;33.84;99623.19;1088035;54;19941;-84
2022/06/01 09:52:35;;;;;;;;;;;;;;;23.67;34.48;99624.44;1088005;54;19947;-83
2022/06/01 09:53:43;;;;;;;;;;;;;;;24.05;34.32;99623.03;1091790;46;19966;-81
2022/06/01 09:54:51;;;;;;;;;;;;;;;24.37;33.58;99627.97;1088464;54;19949;-82
2022/06/01 09:55:57;;;;;;;;;;;;;;;24.60;33.10;99613.34;1088427;54;19950;-81
2022/06/01 09:57:17;;;;;;;;;;;;;;;24.63;32.91;99617.47;1088151;54;20007;-85
2022/06/01 10:06:05;;;;;;;;;;;;;;;24.44;32.39;99617.72;1088282;54;19950;-86
2022/06/01 10:06:38;;;;;;;;;;;;;;;24.50;31.45;99620.53;1087902;54;19943;-84
2022/06/01 10:07:42;;;;;;;;;;;;;;;24.48;30.85;99619.94;1087642;54;19942;-85
2022/06/01 10:08:56;;;;;;;;;;;;;;;24.77;30.66;99618.81;1087341;54;19942;-85
2022/06/01 10:10:02;;;;;;;;;;;;;;;24.91;29.74;99607.56;1088041;54;19942;-83
2022/06/01 10:11:05;;;;;;;;;;;;;;;24.60;30.18;99607.03;1088220;54;19953;-84
2022/06/01 10:12:20;;;;;;;;;;;;;;;24.79;29.82;99604.09;1088040;54;19933;-83
2022/06/01 10:13:26;;;;;;;;;;;;;;;24.72;29.93;99607.81;1087948;54;19938;-85
2022/06/01 10:14:34;;;;;;;;;;;;;;;24.55;30.06;99601.50;1092056;39;20275;-84
2022/06/01 10:15:40;;;;;;;;;;;;;;;24.97;29.92;99616.66;1088257;54;19950;-82
2022/06/01 10:16:47;;;;;;;;;;;;;;;25.03;29.50;99611.00;1091348;46;20002;-84
2022/06/01 10:17:54;;;;;;;;;;;;;;;25.37;29.31;99605.47;1089969;46;19934;-83
2022/06/01 10:18:59;;;;;;;;;;;;;;;25.63;28.51;99608.53;1087758;54;19938;-86
2022/06/01 10:20:08;;;;;;;;;;;;;;;25.87;28.19;99602.81;1089213;46;19942;-82
2022/06/01 10:21:11;;;;;;;;;;;;;;;25.45;28.36;99609.69;1088066;54;19994;-85
2022/06/01 10:22:21;;;;;;;;;;;;;;;25.25;28.70;99610.22;1087887;54;19993;-84
2022/06/01 10:23:30;;;;;;;;;;;;;;;24.95;29.09;99610.63;1088014;54;19939;-84
2022/06/01 10:24:34;;;;;;;;;;;;;;;24.89;29.68;99610.53;1087964;54;19939;-83
2022/06/01 10:25:41;;;;;;;;;;;;;;;24.82;29.86;99612.59;1087623;54;20000;-81
2022/06/01 10:26:46;;;;;;;;;;;;;;;25.03;29.65;99605.53;1089783;46;20807;-83
2022/06/01 10:27:54;;;;;;;;;;;;;;;25.09;29.42;99603.69;1087786;54;19965;-84
2022/06/01 10:29:01;;;;;;;;;;;;;;;25.23;29.39;99604.16;1087709;54;19946;-83
2022/06/01 10:30:07;;;;;;;;;;;;;;;24.89;29.39;99606.97;1088970;46;19955;-85
2022/06/01 10:31:16;;;;;;;;;;;;;;;25.21;29.51;99604.44;1088896;46;19923;-83
2022/06/01 10:32:25;;;;;;;;;;;;;;;25.49;28.85;99608.09;1089272;46;19946;-81
2022/06/01 10:33:31;;;;;;;;;;;;;;;25.81;28.76;99606.53;1088722;46;19923;-84
2022/06/01 10:34:37;;;;;;;;;;;;;;;25.53;28.22;99606.53;1089678;46;19950;-84
2022/06/01 10:35:45;;;;;;;;;;;;;;;25.74;28.09;99603.19;1088141;54;19970;-83
2022/06/01 10:36:51;;;;;;;;;;;;;;;25.25;27.90;99599.28;1088111;54;19950;-84
2022/06/01 10:38:00;;;;;;;;;;;;;;;25.05;28.13;99613.50;1088520;46;19938;-83
2022/06/01 10:39:09;;;;;;;;;;;;;;;25.00;28.02;99606.06;1087746;54;19966;-82
2022/06/01 10:40:15;;;;;;;;;;;;;;;24.87;28.02;99603.66;1088176;46;19972;-83
2022/06/01 10:41:23;;;;;;;;;;;;;;;25.15;28.26;99607.34;1088164;54;20267;-87
2022/06/01 10:43:16;;;;;;;;;;;;;;;25.09;28.55;99614.63;1090481;46;19969;-83
2022/06/01 10:43:59;;;;;;;;;;;;;;;25.33;28.01;99607.03;1088203;54;19954;-84
2022/06/01 10:45:02;;;;;;;;;;;;;;;25.31;27.58;99601.00;1088333;54;19949;-84
2022/06/01 10:46:08;;;;;;;;;;;;;;;25.57;27.60;99606.00;1092807;46;19998;-85
2022/06/01 10:47:15;;;;;;;;;;;;;;;25.70;27.33;99600.13;1089682;46;19943;-84
2022/06/01 10:48:19;;;;;;;;;;;;;;;25.83;26.74;99602.50;1088342;54;19938;-83
2022/06/01 10:49:41;;;;;;;;;;;;;;;25.49;26.96;99594.41;1088042;54;20036;-86
2022/06/01 10:50:47;;;;;;;;;;;;;;;25.29;27.23;99592.22;1088184;54;19942;-82
2022/06/01 10:51:57;;;;;;;;;;;;;;;25.04;27.75;99606.38;1088313;46;20019;-83
2022/06/01 10:53:02;;;;;;;;;;;;;;;24.88;28.08;99606.16;1088214;54;19949;-84
2022/06/01 10:54:14;;;;;;;;;;;;;;;24.94;27.78;99596.09;1088061;54;20634;-85
2022/06/01 10:55:18;;;;;;;;;;;;;;;25.01;27.14;99596.78;1088275;54;19951;-83
2022/06/01 10:56:23;;;;;;;;;;;;;;;25.29;27.14;99591.38;1089914;46;19939;-83
2022/06/01 10:57:25;;;;;;;;;;;;;;;25.11;27.29;99603.47;1089530;46;19950;-84
2022/06/01 10:58:31;;;;;;;;;;;;;;;25.07;27.52;99603.16;1087998;54;19942;-86
2022/06/01 10:59:32;;;;;;;;;;;;;;;24.88;27.44;99602.59;1087858;54;19942;-86
2022/06/01 11:00:38;;;;;;;;;;;;;;;24.85;27.64;99605.81;1087731;54;19942;-84
2022/06/01 11:01:51;;;;;;;;;;;;;;;24.76;27.83;99606.22;1088229;54;19927;-85
2022/06/01 11:03:18;;;;;;;;;;;;;;;25.10;27.54;99599.06;1088321;54;20997;-83
2022/06/01 11:04:43;;;;;;;;;;;;;;;25.05;27.83;99595.19;1088211;54;20221;-81
2022/06/01 11:05:53;;;;;;;;;;;;;;;25.01;27.88;99595.94;1088228;54;19943;-82
2022/06/01 11:07:02;;;;;;;;;;;;;;;24.61;26.89;99590.38;1088157;54;19943;-86
2022/06/01 11:08:21;;;;;;;;;;;;;;;24.61;27.36;99593.13;1089501;46;20594;-84
2022/06/01 11:09:30;;;;;;;;;;;;;;;24.70;26.88;99590.03;1087813;54;19942;-83
2022/06/01 11:10:42;;;;;;;;;;;;;;;24.59;27.21;99589.00;1087663;54;19943;-86
2022/06/01 11:11:50;;;;;;;;;;;;;;;24.64;26.83;99591.81;1087689;54;19950;-84
2022/06/01 11:13:03;;;;;;;;;;;;;;;24.44;26.52;99604.06;1088030;54;19943;-83
2022/06/01 11:14:21;;;;;;;;;;;;;;;24.47;26.88;99600.00;1088029;54;19942;-85
2022/06/01 11:15:30;;;;;;;;;;;;;;;24.44;26.71;99593.13;1087397;54;19943;-84
2022/06/01 11:16:42;;;;;;;;;;;;;;;24.50;26.88;99585.00;1092521;39;20301;-86
2022/06/01 11:17:48;;;;;;;;;;;;;;;24.49;27.31;99591.56;1088075;54;19943;-83
2022/06/01 11:19:00;;;;;;;;;;;;;;;24.44;27.78;99597.75;1088089;54;19942;-83
2022/06/01 11:20:14;;;;;;;;;;;;;;;24.55;27.68;99591.41;1088077;54;19927;-84
2022/06/01 11:21:21;;;;;;;;;;;;;;;24.64;26.42;99590.97;1088103;54;19945;-84
2022/06/01 11:22:32;;;;;;;;;;;;;;;24.59;26.77;99591.72;1087998;54;19938;-83
2022/06/01 11:23:53;;;;;;;;;;;;;;;24.64;26.94;99593.72;1088172;54;20006;-84
2022/06/01 11:25:08;;;;;;;;;;;;;;;24.21;26.66;99593.28;1089312;46;19959;-82
2022/06/01 11:26:15;;;;;;;;;;;;;;;24.41;26.91;99588.16;1088089;54;19950;-84
2022/06/01 11:27:27;;;;;;;;;;;;;;;24.35;26.84;99583.69;1087901;54;20043;-84
2022/06/01 11:28:37;;;;;;;;;;;;;;;24.45;27.42;99585.75;1087971;54;19944;-83
2022/06/01 11:29:47;;;;;;;;;;;;;;;24.48;26.86;99585.28;1088103;54;19952;-84
2022/06/01 11:30:53;;;;;;;;;;;;;;;24.29;27.06;99592.88;1087582;54;19959;-82
2022/06/01 11:31:59;;;;;;;;;;;;;;;24.33;27.19;99585.84;1087285;54;19946;-85
2022/06/01 11:33:04;;;;;;;;;;;;;;;24.08;27.17;99587.06;1087900;54;19923;-83
2022/06/01 11:34:08;;;;;;;;;;;;;;;23.99;27.64;99577.63;1087982;54;20000;-84
2022/06/01 11:35:17;;;;;;;;;;;;;;;23.92;27.56;99577.72;1088127;54;20005;-82
2022/06/01 11:36:25;;;;;;;;;;;;;;;23.68;27.81;99590.66;1087866;54;19986;-82
2022/06/01 11:37:33;;;;;;;;;;;;;;;23.74;28.10;99583.38;1095068;46;20027;-84
2022/06/01 11:38:39;;;;;;;;;;;;;;;23.68;28.39;99585.19;1087659;54;19942;-84
2022/06/01 11:39:43;;;;;;;;;;;;;;;23.73;28.37;99582.53;1088155;54;19995;-85
2022/06/01 11:40:52;;;;;;;;;;;;;;;23.75;27.97;99585.88;1088092;54;19986;-85
2022/06/01 11:41:57;;;;;;;;;;;;;;;23.68;27.92;99588.72;1088093;54;20611;-83
2022/06/01 11:43:05;;;;;;;;;;;;;;;23.77;27.90;99580.16;1088001;54;20676;-83
2022/06/01 11:44:13;;;;;;;;;;;;;;;23.64;28.18;99584.00;1088119;54;19943;-83
2022/06/01 11:45:18;;;;;;;;;;;;;;;23.78;28.04;99585.38;1088106;54;19930;-83
2022/06/01 11:46:25;;;;;;;;;;;;;;;23.80;28.49;99587.84;1088105;54;19951;-84
2022/06/01 11:47:30;;;;;;;;;;;;;;;23.98;27.91;99589.59;1088006;54;19950;-83
2022/06/01 11:48:35;;;;;;;;;;;;;;;24.15;27.48;99589.63;1087746;54;19942;-82
2022/06/01 11:49:41;;;;;;;;;;;;;;;23.82;26.90;99593.91;1087867;54;19958;-84
2022/06/01 11:50:52;;;;;;;;;;;;;;;23.79;27.29;99597.97;1088158;54;19973;-85
2022/06/01 11:51:57;;;;;;;;;;;;;;;23.77;27.69;99586.44;1088298;54;19974;-84
2022/06/01 11:53:05;;;;;;;;;;;;;;;23.91;27.38;99577.97;1088977;47;19943;-84
2022/06/01 11:54:08;;;;;;;;;;;;;;;24.00;27.93;99579.25;1087837;54;19954;-84
2022/06/01 11:55:15;;;;;;;;;;;;;;;24.15;27.69;99589.63;1087967;54;20673;-84
2022/06/01 11:56:25;;;;;;;;;;;;;;;24.26;27.33;99596.09;1087903;54;19950;-82
2022/06/01 11:57:38;;;;;;;;;;;;;;;24.28;27.01;99594.78;1088278;54;19954;-84
2022/06/01 11:58:45;;;;;;;;;;;;;;;24.39;26.94;99587.56;1087966;54;19957;-85
2022/06/01 11:59:47;;;;;;;;;;;;;;;24.34;26.48;99582.03;1088361;54;19942;-83
2022/06/01 12:00:57;;;;;;;;;;;;;;;24.25;26.72;99584.34;1088263;54;19942;-83
2022/06/01 12:02:06;;;;;;;;;;;;;;;24.38;26.82;99583.19;1088818;47;19939;-83
2022/06/01 12:03:22;;;;;;;;;;;;;;;24.22;26.89;99582.13;1088243;54;19942;-84
2022/06/01 12:04:32;;;;;;;;;;;;;;;24.28;26.41;99577.53;1087561;54;19942;-83
2022/06/01 12:05:42;;;;;;;;;;;;;;;24.40;26.88;99583.78;1087684;54;19973;-85
2022/06/01 12:06:46;;;;;;;;;;;;;;;24.43;26.94;99575.09;1088227;54;19950;-84
2022/06/01 12:07:53;;;;;;;;;;;;;;;24.35;26.60;99578.25;1088173;54;19927;-84
2022/06/01 12:08:55;;;;;;;;;;;;;;;24.44;26.79;99576.75;1088074;54;20558;-85
2022/06/01 12:10:03;;;;;;;;;;;;;;;24.55;26.95;99580.47;1088221;54;19943;-84
2022/06/01 12:11:06;;;;;;;;;;;;;;;24.70;26.86;99574.44;1088146;54;19947;-85
2022/06/01 12:12:24;;;;;;;;;;;;;;;24.61;26.80;99575.91;1088532;54;19942;-85
2022/06/01 12:13:30;;;;;;;;;;;;;;;24.62;27.11;99588.50;1088557;54;19991;-85
2022/06/01 12:14:36;;;;;;;;;;;;;;;24.67;27.14;99571.34;1088193;54;20022;-83
2022/06/01 12:16:03;;;;;;;;;;;;;;;24.80;27.01;99581.16;1091191;39;20693;-83
2022/06/01 12:17:22;;;;;;;;;;;;;;;24.73;26.70;99565.75;1088514;54;20691;-82
2022/06/01 12:18:29;;;;;;;;;;;;;;;24.84;26.61;99574.13;1088595;54;19949;-84
2022/06/01 12:19:33;;;;;;;;;;;;;;;24.53;26.82;99570.88;1088450;54;19927;-84
2022/06/01 12:20:55;;;;;;;;;;;;;;;24.38;27.26;99577.72;1088455;54;19989;-83
2022/06/01 12:21:57;;;;;;;;;;;;;;;24.33;27.32;99583.13;1088263;54;19967;-84
2022/06/01 12:28:47;;;;;;;;;;;;;;;24.31;27.95;99566.13;1088640;54;19935;-83
2022/06/01 12:29:57;;;;;;;;;;;;;;;24.32;27.57;99566.97;1088335;54;19943;-84
2022/06/01 12:31:09;;;;;;;;;;;;;;;24.40;27.79;99563.84;1088454;54;19983;-84
2022/06/01 12:32:16;;;;;;;;;;;;;;;24.62;27.44;99566.66;1088424;54;19947;-84
2022/06/01 12:33:20;;;;;;;;;;;;;;;24.48;27.21;99570.78;1088599;54;19938;-83
2022/06/01 12:34:25;;;;;;;;;;;;;;;24.50;27.09;99565.91;1088439;54;19943;-85
2022/06/01 12:35:32;;;;;;;;;;;;;;;24.26;27.22;99577.81;1088210;54;19942;-84
2022/06/01 12:36:40;;;;;;;;;;;;;;;24.40;27.32;99569.31;1090537;39;20878;-84
2022/06/01 12:37:48;;;;;;;;;;;;;;;24.31;27.29;99563.41;1088089;54;19970;-84
2022/06/01 12:38:52;;;;;;;;;;;;;;;24.37;27.67;99562.41;1088280;54;19934;-84
2022/06/01 12:39:56;;;;;;;;;;;;;;;24.36;27.67;99558.06;1088555;54;20015;-84
2022/06/01 12:41:02;;;;;;;;;;;;;;;24.34;27.56;99570.28;1089303;39;20415;-83
2022/06/01 12:42:07;;;;;;;;;;;;;;;24.07;27.33;99573.63;1088565;54;19946;-83
2022/06/01 12:43:17;;;;;;;;;;;;;;;23.99;27.48;99564.78;1088590;54;19937;-83
2022/06/01 12:44:20;;;;;;;;;;;;;;;23.93;27.37;99565.75;1089439;39;20455;-84
2022/06/01 12:45:25;;;;;;;;;;;;;;;24.19;27.62;99562.66;1088406;54;19998;-84
2022/06/01 12:46:27;;;;;;;;;;;;;;;24.15;27.56;99565.03;1088173;54;19946;-84
2022/06/01 12:47:32;;;;;;;;;;;;;;;24.27;27.54;99559.53;1088316;54;20245;-84
2022/06/01 12:48:36;;;;;;;;;;;;;;;24.31;27.72;99552.50;1088667;54;19943;-84
2022/06/01 12:49:40;;;;;;;;;;;;;;;24.17;27.47;99557.44;1088614;54;19934;-84
2022/06/01 12:50:49;;;;;;;;;;;;;;;24.11;27.64;99555.72;1088440;54;19993;-85
2022/06/01 12:51:51;;;;;;;;;;;;;;;24.14;27.26;99566.97;1090116;46;20019;-83
2022/06/01 12:53:11;;;;;;;;;;;;;;;24.12;27.77;99560.09;1088579;54;19947;-84
2022/06/01 12:54:25;;;;;;;;;;;;;;;24.26;27.36;99557.88;1087935;54;19943;-84
2022/06/01 12:55:27;;;;;;;;;;;;;;;24.26;27.76;99552.41;1088609;47;19930;-86
2022/06/01 12:56:31;;;;;;;;;;;;;;;24.27;27.59;99559.53;1100640;46;19967;-84
2022/06/01 12:57:33;;;;;;;;;;;;;;;24.44;27.22;99557.63;1092075;46;19978;-85
2022/06/01 12:58:40;;;;;;;;;;;;;;;24.47;27.15;99558.22;1089821;46;19942;-86
2022/06/01 12:59:45;;;;;;;;;;;;;;;24.33;27.39;99558.53;1088708;54;19927;-83
2022/06/01 13:00:48;;;;;;;;;;;;;;;24.20;26.95;99564.31;1100571;46;19930;-84
2022/06/01 13:01:53;;;;;;;;;;;;;;;24.16;26.99;99553.06;1088593;54;19945;-83
2022/06/01 13:02:54;;;;;;;;;;;;;;;24.01;26.88;99547.34;1091287;46;19942;-84
2022/06/01 13:03:59;;;;;;;;;;;;;;;23.76;27.01;99549.31;1088926;46;19927;-84
2022/06/01 13:05:00;;;;;;;;;;;;;;;23.90;27.07;99559.94;1088788;54;19945;-84
2022/06/01 13:07:10;;;;;;;;;;;;;;;24.09;26.87;99555.13;1088370;54;20539;-84
2022/06/01 13:08:18;;;;;;;;;;;;;;;24.20;27.13;99547.94;1088908;54;19947;-84
2022/06/01 13:09:24;;;;;;;;;;;;;;;24.37;26.67;99543.28;1089367;46;19975;-84
2022/06/01 13:10:28;;;;;;;;;;;;;;;24.23;26.89;99550.97;1088769;54;19927;-86
2022/06/01 13:11:34;;;;;;;;;;;;;;;24.29;26.83;99543.72;1088551;54;19946;-84
2022/06/01 13:12:39;;;;;;;;;;;;;;;24.40;26.71;99542.81;1089837;46;19926;-84
2022/06/01 13:13:43;;;;;;;;;;;;;;;24.28;27.21;99544.78;1089202;46;19994;-85
2022/06/01 13:14:50;;;;;;;;;;;;;;;24.26;27.06;99553.22;1095652;46;19942;-84
2022/06/01 13:15:55;;;;;;;;;;;;;;;24.20;27.37;99553.38;1089734;46;19943;-83
2022/06/01 13:17:04;;;;;;;;;;;;;;;24.27;27.09;99546.69;1091577;46;19986;-83
2022/06/01 13:18:12;;;;;;;;;;;;;;;24.36;26.71;99541.66;1091168;46;19950;-87
2022/06/01 13:19:17;;;;;;;;;;;;;;;24.50;26.81;99533.13;1089467;46;19933;-85
2022/06/01 13:20:24;;;;;;;;;;;;;;;24.54;26.44;99537.81;1089703;46;19954;-84
2022/06/01 13:21:33;;;;;;;;;;;;;;;24.47;25.99;99536.38;1091195;46;19939;-84
2022/06/01 13:22:36;;;;;;;;;;;;;;;24.50;25.59;99538.56;1088620;54;19930;-84
2022/06/01 13:23:46;;;;;;;;;;;;;;;24.54;25.18;99537.00;1088396;54;19931;-84
2022/06/01 13:24:53;;;;;;;;;;;;;;;24.49;25.54;99540.50;1088601;54;19923;-84
2022/06/01 13:25:57;;;;;;;;;;;;;;;24.61;25.53;99540.41;1088614;54;19927;-82
2022/06/01 13:27:01;;;;;;;;;;;;;;;24.54;25.50;99543.28;1096632;39;20158;-86
2022/06/01 13:28:05;;;;;;;;;;;;;;;24.47;25.33;99533.63;1088269;54;19950;-85
2022/06/01 13:29:12;;;;;;;;;;;;;;;24.39;25.09;99532.94;1090223;39;20364;-84
2022/06/01 13:30:18;;;;;;;;;;;;;;;24.39;25.17;99530.22;1088620;54;19938;-84
2022/06/01 13:31:20;;;;;;;;;;;;;;;24.38;25.25;99533.22;1088631;54;19943;-83
2022/06/01 13:32:29;;;;;;;;;;;;;;;24.28;25.65;99539.31;1091582;46;19971;-84
2022/06/01 13:33:38;;;;;;;;;;;;;;;24.57;25.60;99536.50;1088601;54;19930;-84
2022/06/01 13:34:44;;;;;;;;;;;;;;;24.47;25.80;99537.19;1088532;54;19965;-85
2022/06/01 13:35:53;;;;;;;;;;;;;;;24.45;25.74;99528.41;1088577;54;19967;-83
2022/06/01 13:37:06;;;;;;;;;;;;;;;24.50;25.27;99530.38;1088573;54;19942;-82
2022/06/01 13:38:15;;;;;;;;;;;;;;;24.44;24.58;99533.03;1088486;54;19942;-85
2022/06/01 13:39:29;;;;;;;;;;;;;;;24.59;24.62;99534.34;1089229;46;19930;-86
2022/06/01 13:40:35;;;;;;;;;;;;;;;24.56;25.01;99532.13;1090508;46;19923;-85
2022/06/01 13:41:38;;;;;;;;;;;;;;;24.61;25.10;99532.19;1090619;46;19927;-87
2022/06/01 13:42:49;;;;;;;;;;;;;;;24.64;25.12;99515.31;1097274;46;20014;-85
2022/06/01 13:43:53;;;;;;;;;;;;;;;24.61;24.81;99524.00;1089928;46;20006;-87
2022/06/01 13:46:05;;;;;;;;;;;;;;;24.65;24.72;99532.53;1088356;54;19933;-87
2022/06/01 13:48:18;;;;;;;;;;;;;;;24.68;24.51;99521.94;1088968;54;19931;-85
2022/06/01 13:49:25;;;;;;;;;;;;;;;24.59;24.38;99521.53;1089165;46;19949;-86
2022/06/01 13:51:36;;;;;;;;;;;;;;;24.69;24.38;99515.41;1087900;54;19949;-84
2022/06/01 13:53:44;;;;;;;;;;;;;;;24.57;23.52;99520.94;1088981;54;20054;-85
2022/06/01 13:54:48;;;;;;;;;;;;;;;24.73;23.96;99513.00;1089638;46;19961;-85
2022/06/01 13:56:00;;;;;;;;;;;;;;;24.73;23.38;99519.31;1092298;39;19984;-86
2022/06/01 13:57:06;;;;;;;;;;;;;;;24.67;22.91;99531.19;1088511;54;20862;-87
2022/06/01 13:58:09;;;;;;;;;;;;;;;24.55;22.87;99522.28;1088935;46;19939;-87
2022/06/01 13:59:14;;;;;;;;;;;;;;;24.50;23.04;99514.00;1088543;54;19942;-86
2022/06/01 14:00:23;;;;;;;;;;;;;;;24.44;23.58;99527.59;1088546;54;19950;-85
2022/06/01 14:01:35;;;;;;;;;;;;;;;24.52;23.73;99526.31;1089721;46;19974;-86
2022/06/01 14:02:46;;;;;;;;;;;;;;;24.53;23.51;99518.97;1088381;54;20655;-84
2022/06/01 14:03:55;;;;;;;;;;;;;;;24.50;23.46;99514.00;1088483;54;19949;-86
2022/06/01 14:06:06;;;;;;;;;;;;;;;24.61;23.55;99519.34;1087705;54;19985;-86
2022/06/01 14:07:12;;;;;;;;;;;;;;;24.80;24.00;99524.56;1088971;39;20495;-87
2022/06/01 14:08:24;;;;;;;;;;;;;;;25.01;24.12;99530.31;1088945;39;20502;-86
2022/06/01 14:09:30;;;;;;;;;;;;;;;25.24;23.73;99512.84;1088521;54;19942;-86
2022/06/01 14:10:32;;;;;;;;;;;;;;;25.56;23.66;99517.63;1089737;46;19949;-85
2022/06/01 14:11:36;;;;;;;;;;;;;;;25.60;23.13;99507.78;1090483;46;19950;-82
2022/06/01 14:12:42;;;;;;;;;;;;;;;25.87;22.94;99517.09;1089303;46;19938;-85
2022/06/01 14:13:47;;;;;;;;;;;;;;;26.30;22.89;99518.88;1091253;46;19945;-89
2022/06/01 14:14:51;;;;;;;;;;;;;;;26.22;22.42;99504.81;1088489;54;19943;-89
2022/06/01 14:15:56;;;;;;;;;;;;;;;26.05;22.78;99507.69;1091633;46;19954;-87
2022/06/01 14:17:03;;;;;;;;;;;;;;;26.26;22.38;99503.22;1089884;46;19970;-87
2022/06/01 14:18:06;;;;;;;;;;;;;;;26.48;22.54;99503.09;1088052;54;19950;-86
2022/06/01 14:19:09;;;;;;;;;;;;;;;26.87;21.84;99507.50;1090515;46;19938;-84
2022/06/01 14:20:12;;;;;;;;;;;;;;;26.98;21.65;99500.13;1088479;54;19949;-87
2022/06/01 14:21:15;;;;;;;;;;;;;;;26.99;21.63;99504.53;1088436;54;20579;-84
2022/06/01 14:22:20;;;;;;;;;;;;;;;27.09;21.71;99518.28;1088375;54;19949;-86
2022/06/01 14:23:24;;;;;;;;;;;;;;;26.83;21.85;99512.66;1088335;54;19943;-85
2022/06/01 14:24:25;;;;;;;;;;;;;;;26.92;21.82;99513.81;1088346;54;19967;-86
2022/06/01 14:29:20;;;;;;;;;;;;;;;27.11;21.64;99496.06;1088406;54;20488;-85
2022/06/01 14:30:21;;;;;;;;;;;;;;;27.21;21.21;99491.44;1088393;54;19946;-85
2022/06/01 14:31:28;;;;;;;;;;;;;;;27.09;21.35;99493.59;1088362;54;19927;-83
2022/06/01 14:32:32;;;;;;;;;;;;;;;27.37;21.26;99488.75;1088250;54;19950;-85
2022/06/01 14:33:36;;;;;;;;;;;;;;;27.54;21.50;99491.28;1088139;54;19942;-84
2022/06/01 14:34:40;;;;;;;;;;;;;;;27.43;21.31;99495.94;1088315;39;20428;-84
2022/06/01 14:35:41;;;;;;;;;;;;;;;27.58;21.48;99483.38;1087763;54;19942;-84
2022/06/01 14:36:45;;;;;;;;;;;;;;;27.24;21.61;99490.91;1088064;54;19998;-85
2022/06/01 14:37:49;;;;;;;;;;;;;;;27.18;21.75;99488.41;1088231;54;19943;-84
2022/06/01 14:38:53;;;;;;;;;;;;;;;27.27;21.90;99491.47;1088367;54;19939;-84
2022/06/01 14:39:58;;;;;;;;;;;;;;;26.99;22.00;99488.06;1088116;54;19931;-84
2022/06/01 14:41:01;;;;;;;;;;;;;;;26.97;21.52;99490.25;1088266;54;19949;-86
2022/06/01 14:42:07;;;;;;;;;;;;;;;27.17;21.62;99490.34;1088370;54;19950;-85
2022/06/01 14:43:08;;;;;;;;;;;;;;;27.31;21.50;99489.81;1088216;54;19938;-83
2022/06/01 14:44:15;;;;;;;;;;;;;;;27.09;21.92;99496.34;1088364;54;19950;-85
2022/06/01 14:45:16;;;;;;;;;;;;;;;26.78;21.88;99496.19;1088345;54;19947;-85
2022/06/01 14:46:20;;;;;;;;;;;;;;;26.63;22.16;99478.56;1088363;54;19938;-85
2022/06/01 14:47:24;;;;;;;;;;;;;;;26.36;22.48;99494.25;1089494;46;19966;-87
2022/06/01 14:48:31;;;;;;;;;;;;;;;26.36;22.72;99499.72;1089474;46;19966;-85
2022/06/01 14:49:34;;;;;;;;;;;;;;;26.34;22.44;99490.97;1089784;39;20603;-85
2022/06/01 14:50:36;;;;;;;;;;;;;;;26.17;22.71;99489.19;1088415;54;20037;-85
2022/06/01 14:51:43;;;;;;;;;;;;;;;26.23;23.01;99493.63;1088031;54;19942;-85
2022/06/01 14:52:44;;;;;;;;;;;;;;;26.14;23.29;99492.47;1091209;46;19950;-87
2022/06/01 14:53:48;;;;;;;;;;;;;;;26.26;23.24;99501.31;1088518;46;19945;-85
2022/06/01 14:54:52;;;;;;;;;;;;;;;26.40;23.00;99500.84;1088278;54;19973;-83
2022/06/01 14:55:53;;;;;;;;;;;;;;;26.36;22.97;99496.97;1088367;54;19942;-85
2022/06/01 14:56:58;;;;;;;;;;;;;;;26.57;22.61;99501.53;1088266;54;19935;-87
2022/06/01 14:57:59;;;;;;;;;;;;;;;26.37;23.16;99501.38;1088111;54;19942;-86
2022/06/01 14:59:05;;;;;;;;;;;;;;;26.06;22.94;99512.06;1088277;54;19948;-85
2022/06/01 15:00:07;;;;;;;;;;;;;;;26.20;22.87;99507.03;1088276;54;20583;-85
2022/06/01 15:01:13;;;;;;;;;;;;;;;26.34;22.68;99501.94;1087938;54;19943;-85
2022/06/01 15:02:18;;;;;;;;;;;;;;;26.28;22.97;99495.56;1088304;54;19987;-84
2022/06/01 15:03:25;;;;;;;;;;;;;;;26.30;23.17;99488.75;1088236;54;19949;-85
2022/06/01 15:04:32;;;;;;;;;;;;;;;26.34;23.08;99491.78;1088189;54;19948;-86
2022/06/01 15:05:34;;;;;;;;;;;;;;;26.27;23.44;99497.47;1088100;54;19967;-85
2022/06/01 15:06:37;;;;;;;;;;;;;;;26.14;23.06;99497.94;1087605;54;19958;-85
2022/06/01 15:07:41;;;;;;;;;;;;;;;26.05;23.36;99496.72;1087933;54;19950;-85
2022/06/01 15:08:42;;;;;;;;;;;;;;;25.91;23.69;99499.06;1087965;46;19965;-84
2022/06/01 15:09:46;;;;;;;;;;;;;;;25.95;23.43;99497.44;1087870;54;19942;-87
2022/06/01 15:10:48;;;;;;;;;;;;;;;26.19;22.93;99489.75;1087957;54;20887;-86
2022/06/01 15:11:52;;;;;;;;;;;;;;;26.28;23.02;99482.69;1091343;39;20710;-83
2022/06/01 15:12:56;;;;;;;;;;;;;;;26.34;23.10;99490.97;1088392;47;19931;-85
2022/06/01 15:14:00;;;;;;;;;;;;;;;26.30;23.10;99485.19;1088226;54;19942;-87
2022/06/01 15:15:02;;;;;;;;;;;;;;;26.39;23.29;99482.78;1088307;54;19950;-84
2022/06/01 15:16:07;;;;;;;;;;;;;;;26.40;23.16;99490.72;1088255;54;19927;-81
2022/06/01 15:17:13;;;;;;;;;;;;;;;26.25;23.51;99487.88;1088193;54;19951;-86
2022/06/01 15:18:18;;;;;;;;;;;;;;;25.94;23.97;99493.06;1088224;54;20053;-84
2022/06/01 15:19:22;;;;;;;;;;;;;;;25.76;23.87;99497.84;1088899;46;19942;-85
2022/06/01 15:20:26;;;;;;;;;;;;;;;25.65;24.19;99498.81;1088208;54;19966;-84
2022/06/01 15:21:30;;;;;;;;;;;;;;;25.73;24.18;99494.78;1088186;54;19943;-85
2022/06/01 15:22:31;;;;;;;;;;;;;;;25.83;24.10;99492.16;1088231;54;19951;-83
2022/06/01 15:23:35;;;;;;;;;;;;;;;25.63;24.37;99488.13;1088433;47;19938;-81
2022/06/01 15:24:36;;;;;;;;;;;;;;;25.61;24.65;99495.78;1088202;54;19946;-85
2022/06/01 15:25:40;;;;;;;;;;;;;;;25.63;24.42;99488.13;1088175;54;19927;-83
2022/06/01 15:26:42;;;;;;;;;;;;;;;25.70;24.39;99499.69;1089340;46;19938;-83
2022/06/01 15:27:46;;;;;;;;;;;;;;;25.63;24.32;99493.59;1088584;46;20054;-85
2022/06/01 15:28:48;;;;;;;;;;;;;;;25.68;24.32;99501.03;1087956;54;19967;-86
2022/06/01 15:40:03;;;;;;;;;;;;;;;25.03;24.97;99496.16;1087915;54;19974;-86
2022/06/01 15:41:05;;;;;;;;;;;;;;;24.91;25.48;99504.50;1087806;54;19954;-85
2022/06/01 15:42:10;;;;;;;;;;;;;;;24.86;25.26;99507.19;1088142;47;19950;-86
2022/06/01 15:43:11;;;;;;;;;;;;;;;24.85;25.25;99499.22;1087852;54;19943;-83
2022/06/01 15:44:15;;;;;;;;;;;;;;;24.80;25.41;99493.69;1087935;54;19935;-84
2022/06/01 15:45:17;;;;;;;;;;;;;;;24.77;25.39;99489.56;1087912;54;19933;-84
2022/06/01 15:46:23;;;;;;;;;;;;;;;24.71;25.39;99505.06;1087689;54;20016;-87
2022/06/01 15:47:24;;;;;;;;;;;;;;;24.56;25.57;99502.91;1087721;54;19949;-85
2022/06/01 15:48:29;;;;;;;;;;;;;;;24.47;25.85;99509.88;1087897;54;19943;-83
2022/06/01 15:49:35;;;;;;;;;;;;;;;24.44;26.00;99505.72;1090966;39;20755;-86
2022/06/01 15:50:38;;;;;;;;;;;;;;;24.53;25.77;99508.03;1087936;54;19959;-86
2022/06/01 15:51:55;;;;;;;;;;;;;;;24.51;26.01;99510.19;1087781;54;20031;-87
2022/06/01 15:52:56;;;;;;;;;;;;;;;24.59;25.90;99501.56;1087796;54;20674;-85
2022/06/01 15:54:00;;;;;;;;;;;;;;;24.51;25.94;99510.19;1087904;54;19962;-86
2022/06/01 15:55:05;;;;;;;;;;;;;;;24.68;26.15;99497.34;1087835;54;20843;-84
2022/06/01 15:56:06;;;;;;;;;;;;;;;24.59;26.13;99498.84;1087747;54;19943;-85
2022/06/01 15:57:10;;;;;;;;;;;;;;;24.70;26.17;99497.13;1091129;47;19943;-86
2022/06/01 15:58:12;;;;;;;;;;;;;;;24.57;26.12;99500.97;1087831;54;19946;-84